Time;durP1;ratioP1;P1;durP2;ratioP2;P2;SDS_P1;SDS_P2;PMS_P1;PMS_P2;Temp;Humidity;BMP_temperature;BMP_pressure;BME280_temperature;BME280_humidity;BME280_pressure;Samples;Min_cycle;Max_cycle;Signal;HPM_P1;HPM_P2
2023/05/15 00:00:22;;;;;;;65.38;15.50;;;;;;;8.92;100.00;95468.81;1014309;29;20113;-74
2023/05/15 00:00:53;;;;;;;92.22;15.93;;;;;;;8.90;100.00;95465.69;1014162;29;20505;-76
2023/05/15 00:01:23;;;;;;;92.68;16.23;;;;;;;8.82;100.00;95464.38;1009645;29;20035;-77
2023/05/15 00:01:54;;;;;;;81.10;16.00;;;;;;;8.88;100.00;95465.94;1018094;29;20020;-73
2023/05/15 00:02:25;;;;;;;85.70;16.90;;;;;;;8.85;100.00;95463.84;1022084;29;20218;-73
2023/05/15 00:02:56;;;;;;;95.70;17.95;;;;;;;8.77;100.00;95459.09;1022188;29;20037;-75
2023/05/15 00:03:27;;;;;;;65.18;14.70;;;;;;;8.83;100.00;95459.91;1018342;29;20263;-74
2023/05/15 00:03:57;;;;;;;56.35;13.52;;;;;;;8.86;100.00;95475.88;1018452;29;20263;-76
2023/05/15 00:04:28;;;;;;;60.47;16.00;;;;;;;8.89;100.00;95471.97;1024251;28;20042;-75
2023/05/15 00:04:58;;;;;;;109.07;16.95;;;;;;;8.87;100.00;95469.59;1025997;28;20431;-72
2023/05/15 00:05:28;;;;;;;79.45;15.73;;;;;;;8.84;100.00;95461.47;1026299;28;20023;-75
2023/05/15 00:05:59;;;;;;;75.15;15.38;;;;;;;8.83;100.00;95463.31;1021892;28;20031;-75
2023/05/15 00:06:30;;;;;;;80.32;15.98;;;;;;;8.90;100.00;95469.09;1022139;29;20023;-72
2023/05/15 00:07:00;;;;;;;65.93;14.45;;;;;;;8.90;100.00;95471.72;1014187;29;20054;-73
2023/05/15 00:07:31;;;;;;;79.60;16.08;;;;;;;8.84;100.00;95457.03;1018101;29;20019;-74
2023/05/15 00:08:01;;;;;;;76.13;16.05;;;;;;;8.89;100.00;95469.34;1017978;29;20110;-74
2023/05/15 00:08:31;;;;;;;69.18;16.10;;;;;;;8.85;100.00;95455.19;1026330;28;20023;-72
2023/05/15 00:09:02;;;;;;;46.05;13.60;;;;;;;8.91;100.00;95464.63;1025885;28;20054;-73
2023/05/15 00:09:33;;;;;;;69.43;15.43;;;;;;;8.93;100.00;95462.56;1018383;29;20500;-76
2023/05/15 00:10:04;;;;;;;70.55;14.65;;;;;;;8.94;100.00;95466.75;1017865;29;20255;-74
2023/05/15 00:10:34;;;;;;;66.82;14.40;;;;;;;8.95;100.00;95466.50;1018553;29;20032;-73
2023/05/15 00:11:05;;;;;;;74.53;15.57;;;;;;;8.95;100.00;95468.31;1017591;29;20031;-73
2023/05/15 00:11:35;;;;;;;96.57;16.73;;;;;;;8.91;100.00;95456.78;1010494;29;20089;-75
2023/05/15 00:12:06;;;;;;;59.95;12.90;;;;;;;8.96;100.00;95467.28;1014137;29;20024;-74
2023/05/15 00:12:36;;;;;;;27.17;11.88;;;;;;;8.96;100.00;95464.66;1014367;29;20490;-76
2023/05/15 00:13:07;;;;;;;38.67;12.75;;;;;;;8.84;100.00;95445.78;1017522;29;20024;-72
2023/05/15 00:13:37;;;;;;;60.25;14.18;;;;;;;8.97;100.00;95467.00;1014285;29;20028;-75
2023/05/15 00:14:08;;;;;;;53.38;14.20;;;;;;;9.01;100.00;95467.28;1017401;29;20016;-73
2023/05/15 00:14:38;;;;;;;44.00;13.27;;;;;;;9.02;100.00;95461.03;1014103;29;20017;-73
2023/05/15 00:15:09;;;;;;;33.25;11.88;;;;;;;9.02;100.00;95462.81;1014306;28;20028;-73
2023/05/15 00:15:39;;;;;;;38.75;12.57;;;;;;;9.01;100.00;95463.88;1026139;28;20030;-75
2023/05/15 00:16:10;;;;;;;58.13;14.05;;;;;;;8.96;100.00;95451.56;1021490;28;20063;-74
2023/05/15 00:16:40;;;;;;;69.75;15.75;;;;;;;8.95;100.00;95463.06;1018202;29;20027;-72
2023/05/15 00:17:11;;;;;;;44.35;14.13;;;;;;;8.99;100.00;95464.16;1018018;29;20054;-74
2023/05/15 00:17:41;;;;;;;31.30;12.40;;;;;;;9.00;100.00;95463.09;1014386;29;20414;-74
2023/05/15 00:18:12;;;;;;;27.73;12.07;;;;;;;9.01;100.00;95462.03;1013692;29;20458;-72
2023/05/15 00:18:43;;;;;;;93.35;15.15;;;;;;;9.00;100.00;95460.47;1014279;29;20025;-74
2023/05/15 00:19:13;;;;;;;36.85;12.02;;;;;;;8.94;100.00;95456.28;1018254;29;20035;-74
2023/05/15 00:19:44;;;;;;;33.80;12.88;;;;;;;8.96;100.00;95448.97;1014046;29;20394;-74
2023/05/15 00:20:15;;;;;;;34.15;12.65;;;;;;;9.03;100.00;95462.56;1010182;29;20029;-74
2023/05/15 00:20:45;;;;;;;64.50;15.07;;;;;;;9.01;100.00;95459.44;1010738;29;20033;-73
2023/05/15 00:21:16;;;;;;;49.25;12.45;;;;;;;8.99;100.00;95461.53;1009583;29;20423;-74
2023/05/15 00:21:46;;;;;;;28.05;12.68;;;;;;;8.94;100.00;95451.03;1010465;29;20098;-73
2023/05/15 00:22:16;;;;;;;23.77;11.00;;;;;;;9.01;100.00;95458.66;1010109;29;20029;-72
2023/05/15 00:22:47;;;;;;;33.40;11.52;;;;;;;8.95;100.00;95458.66;1010190;29;20020;-73
2023/05/15 00:23:17;;;;;;;29.77;12.00;;;;;;;8.99;100.00;95464.16;1014028;29;20019;-77
2023/05/15 00:23:48;;;;;;;30.35;12.18;;;;;;;8.94;100.00;95457.06;1014057;29;20020;-75
2023/05/15 00:24:19;;;;;;;26.98;11.48;;;;;;;8.99;100.00;95464.16;1017795;29;20032;-73
2023/05/15 00:24:50;;;;;;;43.65;12.80;;;;;;;8.98;100.00;95458.09;1024102;28;20030;-75
2023/05/15 00:25:20;;;;;;;29.48;11.13;;;;;;;8.97;100.00;95461.00;1033838;28;20264;-73
2023/05/15 00:25:51;;;;;;;31.88;11.40;;;;;;;8.96;100.00;95456.81;1033119;28;20079;-74
2023/05/15 00:26:22;;;;;;;36.95;12.65;;;;;;;8.98;100.00;95457.31;1029586;28;20014;-76
2023/05/15 00:26:52;;;;;;;33.20;12.40;;;;;;;8.97;100.00;95461.78;1017938;29;20015;-73
2023/05/15 00:27:22;;;;;;;38.97;12.95;;;;;;;8.95;100.00;95457.84;1021881;28;20375;-74
2023/05/15 00:27:53;;;;;;;39.05;12.02;;;;;;;8.96;100.00;95456.81;1017800;29;20435;-76
2023/05/15 00:28:23;;;;;;;37.50;13.05;;;;;;;8.91;100.00;95451.56;1017803;29;20040;-73
2023/05/15 00:28:54;;;;;;;32.40;11.80;;;;;;;8.85;100.00;95436.88;1018254;29;20022;-74
2023/05/15 00:29:24;;;;;;;31.27;11.77;;;;;;;8.95;100.00;95455.22;1014104;29;20048;-73
2023/05/15 00:29:55;;;;;;;38.47;13.00;;;;;;;8.96;100.00;95456.81;1013358;29;20489;-73
2023/05/15 00:30:25;;;;;;;44.15;12.95;;;;;;;8.97;100.00;95453.16;1009589;29;20076;-73
2023/05/15 00:30:56;;;;;;;37.95;12.15;;;;;;;8.93;100.00;95450.25;1011295;29;20079;-77
2023/05/15 00:31:26;;;;;;;36.97;12.23;;;;;;;8.94;100.00;95457.06;1017529;28;20035;-74
2023/05/15 00:31:57;;;;;;;43.22;12.20;;;;;;;8.94;100.00;95457.06;1021742;28;20520;-73
2023/05/15 00:32:27;;;;;;;32.35;12.90;;;;;;;8.88;100.00;95449.44;1025805;28;20027;-75
2023/05/15 00:32:58;;;;;;;33.05;12.55;;;;;;;8.93;100.00;95452.09;1019542;29;20025;-75
2023/05/15 00:33:28;;;;;;;43.55;12.68;;;;;;;8.91;100.00;95451.56;1020673;29;20027;-77
2023/05/15 00:33:59;;;;;;;38.78;11.40;;;;;;;8.88;100.00;95441.59;1018090;29;20026;-76
2023/05/15 00:34:29;;;;;;;36.03;12.57;;;;;;;8.93;100.00;95454.72;1025888;28;20082;-74
2023/05/15 00:35:00;;;;;;;46.13;13.70;;;;;;;8.91;100.00;95451.56;1021543;29;20421;-73
2023/05/15 00:35:31;;;;;;;38.80;12.43;;;;;;;8.92;100.00;95453.13;1022169;29;20023;-74
2023/05/15 00:36:01;;;;;;;43.58;13.15;;;;;;;8.92;100.00;95453.13;1014063;29;20515;-74
2023/05/15 00:36:32;;;;;;;46.15;13.02;;;;;;;8.86;100.00;95447.09;1017806;29;20275;-76
2023/05/15 00:37:02;;;;;;;43.97;13.23;;;;;;;8.88;100.00;95441.59;1018133;29;20028;-73
2023/05/15 00:37:33;;;;;;;39.28;13.07;;;;;;;8.87;100.00;95445.28;1026098;28;20106;-74
2023/05/15 00:38:03;;;;;;;48.28;12.75;;;;;;;8.81;100.00;95435.84;1021903;29;20023;-73
2023/05/15 00:38:33;;;;;;;57.72;13.45;;;;;;;8.88;100.00;95446.84;1015608;29;20035;-74
2023/05/15 00:39:04;;;;;;;52.15;13.40;;;;;;;8.86;100.00;95449.72;1013793;29;20889;-73
2023/05/15 00:39:35;;;;;;;81.00;14.55;;;;;;;8.85;100.00;95444.72;1014477;29;20111;-73
2023/05/15 00:40:07;;;;;;;52.08;13.65;;;;;;;8.81;100.00;95446.31;1016536;29;20027;-74
2023/05/15 00:40:37;;;;;;;50.55;13.77;;;;;;;8.84;100.00;95445.78;1011142;29;20269;-74
2023/05/15 00:41:09;;;;;;;78.57;15.32;;;;;;;8.78;100.00;95441.59;1014000;29;20296;-75
2023/05/15 00:41:39;;;;;;;81.53;13.98;;;;;;;8.79;100.00;95443.97;1009941;29;20027;-74
2023/05/15 00:42:10;;;;;;;72.75;15.35;;;;;;;8.79;100.00;95443.97;1010049;29;20268;-74
2023/05/15 00:42:40;;;;;;;93.60;17.15;;;;;;;8.81;100.00;95443.69;1017939;29;20103;-74
2023/05/15 00:43:11;;;;;;;85.97;15.52;;;;;;;8.76;100.00;95438.47;1017655;29;20016;-74
2023/05/15 00:43:41;;;;;;;81.95;15.43;;;;;;;8.67;100.00;95420.63;1017852;29;20626;-73
2023/05/15 00:44:12;;;;;;;130.77;17.40;;;;;;;8.81;100.00;95447.09;1017823;29;20080;-73
2023/05/15 00:44:43;;;;;;;127.60;20.08;;;;;;;8.78;100.00;95442.38;1013977;29;20024;-75
2023/05/15 00:45:14;;;;;;;88.07;17.33;;;;;;;8.81;100.00;95446.31;1014077;29;20028;-73
2023/05/15 00:45:45;;;;;;;90.35;15.82;;;;;;;8.79;100.00;95437.94;1017892;29;20299;-73
2023/05/15 00:46:15;;;;;;;100.18;15.98;;;;;;;8.77;100.00;95440.00;1017912;29;20449;-74
2023/05/15 00:46:46;;;;;;;61.90;14.13;;;;;;;8.80;100.00;95442.13;1014180;29;20020;-75
2023/05/15 00:47:16;;;;;;;72.85;15.52;;;;;;;8.80;100.00;95448.13;1014197;29;20067;-75
2023/05/15 00:47:47;;;;;;;72.65;13.48;;;;;;;8.79;100.00;95443.16;1018071;29;20535;-73
2023/05/15 00:48:18;;;;;;;75.75;14.68;;;;;;;8.80;100.00;95439.50;1014011;29;20078;-75
2023/05/15 00:48:49;;;;;;;55.83;13.48;;;;;;;8.75;100.00;95432.41;1010090;29;20021;-74
2023/05/15 00:49:20;;;;;;;67.20;14.40;;;;;;;8.84;100.00;95440.56;1021127;29;20267;-72
2023/05/15 00:49:50;;;;;;;73.95;15.32;;;;;;;8.81;100.00;95443.69;1013979;29;20264;-74
2023/05/15 00:50:21;;;;;;;64.30;14.25;;;;;;;8.81;100.00;95435.84;1013771;29;20374;-75
2023/05/15 00:50:51;;;;;;;66.85;15.38;;;;;;;8.81;100.00;95441.06;1021635;29;20030;-72
2023/05/15 00:51:22;;;;;;;90.70;15.90;;;;;;;8.79;100.00;95440.56;1020977;29;20047;-74
2023/05/15 00:51:53;;;;;;;108.43;15.85;;;;;;;8.76;100.00;95436.63;1014093;29;20437;-75
2023/05/15 00:52:23;;;;;;;102.50;15.98;;;;;;;8.77;100.00;95440.00;1013587;29;20078;-74
2023/05/15 00:52:54;;;;;;;129.38;19.33;;;;;;;8.74;100.00;95436.88;1017728;29;20016;-74
2023/05/15 00:53:26;;;;;;;129.13;17.42;;;;;;;8.71;100.00;95426.91;1021745;29;20121;-73
2023/05/15 00:53:57;;;;;;;148.35;19.02;;;;;;;8.60;100.00;95407.00;1017733;29;20024;-74
2023/05/15 00:54:28;;;;;;;130.02;18.35;;;;;;;8.76;100.00;95438.47;1021618;29;20284;-76
2023/05/15 00:54:58;;;;;;;161.85;18.38;;;;;;;8.69;100.00;95421.16;1021867;29;20303;-74
2023/05/15 00:55:28;;;;;;;150.32;19.45;;;;;;;8.74;100.00;95431.63;1021649;29;20034;-74
2023/05/15 00:55:59;;;;;;;128.80;17.55;;;;;;;8.68;100.00;95422.19;1013999;29;20027;-76
2023/05/15 00:56:29;;;;;;;146.07;17.92;;;;;;;8.74;100.00;95423.78;1013916;29;20028;-75
2023/05/15 00:57:00;;;;;;;152.18;19.60;;;;;;;8.72;100.00;95418.03;1014074;29;20016;-74
2023/05/15 00:57:31;;;;;;;206.30;24.25;;;;;;;8.77;100.00;95426.94;1009931;29;20120;-73
2023/05/15 00:58:02;;;;;;;225.38;23.17;;;;;;;8.76;100.00;95422.75;1013894;29;20125;-74
2023/05/15 00:58:32;;;;;;;198.77;20.73;;;;;;;8.76;100.00;95425.38;1017879;29;20055;-73
2023/05/15 00:59:03;;;;;;;203.93;22.30;;;;;;;8.77;100.00;95421.72;1014081;29;20053;-74
2023/05/15 00:59:34;;;;;;;333.00;25.10;;;;;;;8.70;100.00;95420.13;1017571;29;20417;-74
2023/05/15 01:00:09;;;;;;;273.67;27.33;;;;;;;8.74;100.00;95429.00;1025788;28;20326;-74
2023/05/15 01:00:40;;;;;;;245.27;27.80;;;;;;;8.73;100.00;95422.22;1017852;29;20026;-75
2023/05/15 01:01:10;;;;;;;258.52;24.38;;;;;;;8.77;100.00;95419.09;1016883;29;20279;-74
2023/05/15 01:01:44;;;;;;;241.88;21.88;;;;;;;8.77;100.00;95425.09;1017710;29;20023;-74
2023/05/15 01:02:14;;;;;;;182.93;23.42;;;;;;;8.79;100.00;95417.00;1009797;29;20439;-75
2023/05/15 01:02:45;;;;;;;272.67;23.90;;;;;;;8.78;100.00;95425.88;1019155;29;20321;-75
2023/05/15 01:03:16;;;;;;;222.95;22.17;;;;;;;8.78;100.00;95423.28;1021806;29;20463;-74
2023/05/15 01:03:47;;;;;;;182.20;21.50;;;;;;;8.79;100.00;95420.41;1017735;29;20259;-73
2023/05/15 01:04:17;;;;;;;199.02;25.55;;;;;;;8.81;100.00;95422.75;1013961;29;20008;-74
2023/05/15 01:04:48;;;;;;;150.45;22.17;;;;;;;8.83;100.00;95418.06;1025676;28;20530;-74
2023/05/15 01:05:19;;;;;;;263.95;25.23;;;;;;;8.80;100.00;95418.56;1021655;29;20147;-74
2023/05/15 01:05:49;;;;;;;177.60;22.48;;;;;;;8.82;100.00;95421.69;1021939;29;20031;-76
2023/05/15 01:06:19;;;;;;;205.15;20.65;;;;;;;8.81;100.00;95414.91;1017565;29;20055;-73
2023/05/15 01:06:52;;;;;;;176.38;22.30;;;;;;;8.81;100.00;95418.31;1014350;29;20206;-75
2023/05/15 01:07:23;;;;;;;179.05;20.15;;;;;;;8.84;100.00;95420.41;1013967;29;20039;-75
2023/05/15 01:08:21;;;;;;;207.18;20.17;;;;;;;8.85;100.00;95415.97;1017651;29;20363;-74
2023/05/15 01:08:53;;;;;;;217.80;22.58;;;;;;;8.85;100.00;95421.19;1009680;29;20020;-74
2023/05/15 01:09:24;;;;;;;253.35;23.55;;;;;;;8.81;100.00;95410.47;1009497;29;20257;-74
2023/05/15 01:09:54;;;;;;;184.27;18.58;;;;;;;8.78;100.00;95412.81;1013066;29;20276;-75
2023/05/15 01:10:25;;;;;;;175.23;20.75;;;;;;;8.79;100.00;95411.78;1013823;29;20088;-74
2023/05/15 01:10:55;;;;;;;169.82;19.05;;;;;;;8.80;100.00;95416.75;1018202;29;20020;-76
2023/05/15 01:11:34;;;;;;;136.55;18.92;;;;;;;8.77;100.00;95413.84;1013199;29;20085;-73
2023/05/15 01:12:05;;;;;;;123.55;18.48;;;;;;;8.80;100.00;95414.13;1013821;29;20055;-73
2023/05/15 01:12:35;;;;;;;80.47;16.23;;;;;;;8.78;100.00;95407.56;1011448;29;20277;-75
2023/05/15 01:13:06;;;;;;;166.10;20.65;;;;;;;8.83;100.00;95413.59;1009829;29;20056;-75
2023/05/15 01:13:36;;;;;;;121.88;18.02;;;;;;;8.83;100.00;95416.22;1011225;29;20059;-74
2023/05/15 01:14:07;;;;;;;175.50;21.60;;;;;;;8.83;100.00;95418.06;1014006;29;20039;-74
2023/05/15 01:14:38;;;;;;;175.15;20.15;;;;;;;8.83;100.00;95412.84;1013993;29;20065;-74
2023/05/15 01:15:08;;;;;;;137.80;19.27;;;;;;;8.84;100.00;95419.63;1013995;29;20481;-73
2023/05/15 01:15:39;;;;;;;105.45;18.20;;;;;;;8.83;100.00;95413.59;1010060;29;20240;-74
2023/05/15 01:16:10;;;;;;;115.15;18.00;;;;;;;8.78;100.00;95402.34;1014029;29;20028;-75
2023/05/15 01:16:40;;;;;;;94.93;18.58;;;;;;;8.85;100.00;95415.97;1014255;29;20622;-74
2023/05/15 01:17:11;;;;;;;86.18;17.60;;;;;;;8.86;100.00;95418.31;1013926;29;20028;-74
2023/05/15 01:17:42;;;;;;;109.43;18.48;;;;;;;8.86;100.00;95417.53;1017957;29;20020;-74
2023/05/15 01:18:12;;;;;;;132.23;20.95;;;;;;;8.85;100.00;95418.56;1013708;29;20160;-73
2023/05/15 01:18:43;;;;;;;92.13;18.88;;;;;;;8.83;100.00;95418.06;1017661;29;20119;-74
2023/05/15 01:19:13;;;;;;;96.63;19.98;;;;;;;8.78;100.00;95407.56;1018185;29;20074;-74
2023/05/15 01:19:44;;;;;;;134.02;20.70;;;;;;;8.84;100.00;95414.38;1013699;29;20020;-74
2023/05/15 01:20:14;;;;;;;76.88;17.30;;;;;;;8.83;100.00;95412.84;1009829;29;20422;-74
2023/05/15 01:21:00;;;;;;;91.63;18.95;;;;;;;8.87;100.00;95413.88;1010284;29;20028;-74
2023/05/15 01:21:36;;;;;;;97.05;19.25;;;;;;;8.87;100.00;95419.88;1011835;29;20031;-73
2023/05/15 01:22:06;;;;;;;83.53;18.42;;;;;;;8.87;100.00;95412.03;1022498;28;20266;-74
2023/05/15 01:22:41;;;;;;;52.00;17.13;;;;;;;8.91;100.00;95412.31;1024690;28;20293;-74
2023/05/15 01:23:15;;;;;;;87.03;18.13;;;;;;;8.90;100.00;95419.38;1024032;28;20027;-76
2023/05/15 01:24:05;;;;;;;93.05;17.73;;;;;;;8.93;100.00;95420.69;1018018;29;20692;-77
2023/05/15 01:25:08;;;;;;;60.30;16.33;;;;;;;8.92;100.00;95413.88;1021750;29;20267;-74
2023/05/15 01:26:01;;;;;;;72.72;16.95;;;;;;;8.91;100.00;95412.31;1013961;28;20183;-74
2023/05/15 01:26:34;;;;;;;51.17;14.57;;;;;;;8.79;100.00;95393.47;1027264;28;20470;-74
2023/05/15 01:27:26;;;;;;;71.80;15.50;;;;;;;8.88;100.00;95403.13;1017771;29;20741;-77
2023/05/15 01:27:58;;;;;;;78.70;17.55;;;;;;;8.77;100.00;95395.53;1017838;29;20271;-73
2023/05/15 01:28:32;;;;;;;61.85;16.77;;;;;;;8.86;100.00;95401.84;1017238;29;20271;-74
2023/05/15 01:29:15;;;;;;;63.03;16.67;;;;;;;8.88;100.00;95405.75;1021816;29;20350;-73
2023/05/15 01:29:51;;;;;;;63.90;16.30;;;;;;;8.88;100.00;95405.75;1021738;29;20362;-75
2023/05/15 01:30:27;;;;;;;52.55;15.77;;;;;;;8.91;100.00;95407.84;1024987;28;20269;-74
2023/05/15 01:31:00;;;;;;;61.83;16.65;;;;;;;8.89;100.00;95404.72;1021543;29;20270;-73
2023/05/15 01:31:31;;;;;;;56.75;16.70;;;;;;;8.82;100.00;95398.16;1017615;29;21195;-74
2023/05/15 01:32:08;;;;;;;73.32;18.23;;;;;;;8.85;100.00;95405.50;1021700;29;20274;-74
2023/05/15 01:33:05;;;;;;;61.10;17.38;;;;;;;8.88;100.00;95407.59;1021956;29;20269;-74
2023/05/15 01:33:37;;;;;;;57.72;16.42;;;;;;;8.82;100.00;95406.00;1018221;29;20335;-75
2023/05/15 01:34:08;;;;;;;75.53;17.88;;;;;;;8.80;100.00;95397.66;1014476;29;20260;-76
2023/05/15 01:35:13;;;;;;;43.08;16.65;;;;;;;8.79;100.00;95396.88;1013948;29;20285;-73
2023/05/15 01:35:49;;;;;;;85.88;18.15;;;;;;;8.85;100.00;95402.88;1002202;29;20322;-73
2023/05/15 01:36:23;;;;;;;64.72;17.05;;;;;;;8.86;100.00;95407.88;1004461;29;20262;-75
2023/05/15 01:36:55;;;;;;;62.03;17.27;;;;;;;8.86;100.00;95407.88;1016946;29;20259;-74
2023/05/15 01:37:26;;;;;;;49.30;16.73;;;;;;;8.86;100.00;95413.09;1017782;29;20406;-76
2023/05/15 01:38:13;;;;;;;52.00;16.85;;;;;;;8.74;100.00;95397.63;1010153;29;20465;-72
2023/05/15 01:38:44;;;;;;;43.70;15.25;;;;;;;8.86;100.00;95412.31;1010012;29;20036;-74
2023/05/15 01:39:15;;;;;;;51.88;15.93;;;;;;;8.86;100.00;95412.31;1018387;29;20268;-74
2023/05/15 01:39:45;;;;;;;51.20;16.83;;;;;;;8.86;100.00;95409.69;1018497;29;20015;-73
2023/05/15 01:40:17;;;;;;;54.40;16.90;;;;;;;8.82;100.00;95403.38;1014398;29;20279;-74
2023/05/15 01:40:48;;;;;;;44.45;16.75;;;;;;;8.88;100.00;95418.06;1014595;29;20024;-74
2023/05/15 01:41:30;;;;;;;43.70;16.35;;;;;;;8.85;100.00;95414.16;1017616;29;20267;-74
2023/05/15 01:42:08;;;;;;;48.42;16.85;;;;;;;8.86;100.00;95417.53;1018461;29;20267;-73
2023/05/15 01:42:41;;;;;;;45.30;16.60;;;;;;;8.88;100.00;95420.66;1014859;29;20264;-74
2023/05/15 01:43:15;;;;;;;39.28;15.43;;;;;;;8.87;100.00;95424.34;1014499;29;20320;-74
2023/05/15 01:43:45;;;;;;;49.15;16.60;;;;;;;8.76;100.00;95410.47;1018255;29;20350;-73
2023/05/15 01:44:23;;;;;;;47.75;17.73;;;;;;;8.86;100.00;95426.19;1014534;29;20280;-73
2023/05/15 01:44:54;;;;;;;47.85;16.98;;;;;;;8.85;100.00;95421.19;1014760;29;20065;-73
2023/05/15 01:45:25;;;;;;;34.67;15.45;;;;;;;8.84;100.00;95423.03;1014447;29;20424;-74
2023/05/15 01:45:56;;;;;;;34.92;16.17;;;;;;;8.86;100.00;95422.78;1022269;29;20649;-73
2023/05/15 01:46:26;;;;;;;38.92;16.38;;;;;;;8.84;100.00;95417.00;1022756;29;20191;-74
2023/05/15 01:46:58;;;;;;;41.50;16.88;;;;;;;8.84;100.00;95423.03;1014578;29;20270;-73
2023/05/15 01:47:47;;;;;;;37.50;16.60;;;;;;;8.85;100.00;95416.75;1014099;29;20042;-73
2023/05/15 01:48:17;;;;;;;36.97;14.57;;;;;;;8.86;100.00;95428.00;1018315;29;20255;-74
2023/05/15 01:48:48;;;;;;;33.88;16.02;;;;;;;8.85;100.00;95426.41;1018363;29;21167;-73
2023/05/15 01:49:19;;;;;;;31.98;15.27;;;;;;;8.82;100.00;95417.28;1018497;29;20015;-75
2023/05/15 01:49:49;;;;;;;36.35;16.42;;;;;;;8.80;100.00;95419.34;1018368;29;20283;-73
2023/05/15 01:50:20;;;;;;;38.65;15.82;;;;;;;8.85;100.00;95427.22;1014597;29;20127;-75
2023/05/15 01:50:50;;;;;;;44.42;16.00;;;;;;;8.82;100.00;95427.75;1014787;29;20024;-75
2023/05/15 01:51:21;;;;;;;34.88;15.48;;;;;;;8.80;100.00;95421.19;1022014;29;20350;-73
2023/05/15 01:52:14;;;;;;;35.88;15.82;;;;;;;8.86;100.00;95430.63;1022634;28;20835;-74
2023/05/15 01:52:47;;;;;;;41.75;14.93;;;;;;;8.87;100.00;95432.19;1008869;29;20092;-74
2023/05/15 01:53:17;;;;;;;42.08;15.32;;;;;;;8.76;100.00;95420.94;1007000;29;20328;-75
2023/05/15 01:53:48;;;;;;;36.95;15.63;;;;;;;8.82;100.00;95421.69;1011184;29;20285;-73
2023/05/15 01:54:18;;;;;;;35.15;15.75;;;;;;;8.84;100.00;95424.84;1019931;29;20254;-76
2023/05/15 01:54:49;;;;;;;35.85;15.27;;;;;;;8.81;100.00;95425.38;1015687;29;20020;-74
2023/05/15 01:55:20;;;;;;;54.42;15.93;;;;;;;8.82;100.00;95421.69;1014445;29;20390;-73
2023/05/15 01:55:50;;;;;;;28.85;14.18;;;;;;;8.78;100.00;95421.44;1022332;29;20554;-74
2023/05/15 01:56:21;;;;;;;39.47;16.55;;;;;;;8.82;100.00;95426.94;1014445;29;20012;-75
2023/05/15 01:56:51;;;;;;;45.70;15.13;;;;;;;8.80;100.00;95423.81;1018386;29;20401;-74
2023/05/15 01:57:22;;;;;;;32.58;15.30;;;;;;;8.80;100.00;95419.34;1022579;29;20022;-73
2023/05/15 01:57:52;;;;;;;33.47;14.90;;;;;;;8.79;100.00;95424.88;1014237;29;20028;-74
2023/05/15 01:58:24;;;;;;;45.30;16.98;;;;;;;8.73;100.00;95417.00;1014508;29;20020;-76
2023/05/15 01:58:54;;;;;;;43.75;16.95;;;;;;;8.81;100.00;95426.16;1018356;29;20100;-74
2023/05/15 01:59:25;;;;;;;41.15;16.27;;;;;;;8.81;100.00;95423.53;1018291;29;20743;-74
2023/05/15 01:59:55;;;;;;;33.65;15.45;;;;;;;8.82;100.00;95421.69;1018413;29;20024;-74
2023/05/15 02:00:26;;;;;;;47.13;15.68;;;;;;;8.80;100.00;95423.81;1018326;29;20027;-73
2023/05/15 02:00:56;;;;;;;36.78;15.82;;;;;;;8.73;100.00;95419.59;1018288;29;20091;-76
2023/05/15 02:01:27;;;;;;;47.83;17.27;;;;;;;8.77;100.00;95424.31;1018405;29;20054;-73
2023/05/15 02:01:57;;;;;;;43.40;16.42;;;;;;;8.65;100.00;95404.44;1018709;29;20143;-75
2023/05/15 02:02:28;;;;;;;49.35;16.45;;;;;;;8.73;100.00;95414.38;1010605;29;20139;-73
2023/05/15 02:02:58;;;;;;;39.78;16.95;;;;;;;8.77;100.00;95429.56;1014832;29;20137;-72
2023/05/15 02:03:29;;;;;;;39.33;16.45;;;;;;;8.78;100.00;95425.88;1022297;29;20022;-75
2023/05/15 02:04:00;;;;;;;51.35;16.55;;;;;;;8.74;100.00;95429.00;1014529;29;20032;-72
2023/05/15 02:04:31;;;;;;;42.33;16.70;;;;;;;8.77;100.00;95426.94;1014548;29;20268;-75
2023/05/15 02:05:02;;;;;;;50.25;17.70;;;;;;;8.76;100.00;95423.53;1022291;29;20019;-75
2023/05/15 02:05:33;;;;;;;48.50;16.92;;;;;;;8.76;100.00;95430.59;1018532;29;20267;-74
2023/05/15 02:06:04;;;;;;;35.58;16.23;;;;;;;8.68;100.00;95416.97;1018271;29;20091;-74
2023/05/15 02:06:35;;;;;;;39.92;16.30;;;;;;;8.76;100.00;95428.00;1018347;29;20094;-76
2023/05/15 02:07:05;;;;;;;53.70;17.45;;;;;;;8.74;100.00;95423.78;1014951;29;20328;-74
2023/05/15 02:07:36;;;;;;;40.75;16.52;;;;;;;8.73;100.00;95424.84;1014433;29;20031;-72
2023/05/15 02:08:06;;;;;;;37.80;16.50;;;;;;;8.74;100.00;95425.63;1018441;29;20725;-73
2023/05/15 02:08:37;;;;;;;38.45;16.35;;;;;;;8.73;100.00;95427.44;1014684;29;20100;-73
2023/05/15 02:09:07;;;;;;;38.75;16.80;;;;;;;8.73;100.00;95424.06;1014726;29;20021;-77
2023/05/15 02:09:38;;;;;;;34.58;16.50;;;;;;;8.72;100.00;95420.66;1014960;29;20016;-73
2023/05/15 02:10:09;;;;;;;33.85;16.10;;;;;;;8.77;100.00;95419.88;1018812;29;20016;-72
2023/05/15 02:10:40;;;;;;;37.33;14.90;;;;;;;8.74;100.00;95426.41;1018551;29;20979;-74
2023/05/15 02:11:10;;;;;;;32.20;15.90;;;;;;;8.78;100.00;95425.88;1010130;29;20318;-74
2023/05/15 02:11:41;;;;;;;39.80;15.48;;;;;;;8.78;100.00;95426.66;1018545;29;20466;-75
2023/05/15 02:12:11;;;;;;;34.92;15.20;;;;;;;8.77;100.00;95429.56;1018523;29;20342;-76
2023/05/15 02:12:42;;;;;;;31.92;14.93;;;;;;;8.74;100.00;95421.16;1018578;29;20362;-73
2023/05/15 02:13:12;;;;;;;37.95;15.23;;;;;;;8.68;100.00;95422.19;1014394;29;20024;-73
2023/05/15 02:13:42;;;;;;;34.72;16.65;;;;;;;8.76;100.00;95428.00;1014966;29;20021;-72
2023/05/15 02:14:13;;;;;;;32.75;14.93;;;;;;;8.75;100.00;95429.78;1014632;29;20031;-74
2023/05/15 02:14:44;;;;;;;33.47;15.27;;;;;;;8.73;100.00;95429.28;1018441;29;20143;-73
2023/05/15 02:15:14;;;;;;;33.40;15.05;;;;;;;8.73;100.00;95426.66;1014947;29;20012;-74
2023/05/15 02:15:45;;;;;;;32.15;15.32;;;;;;;8.75;100.00;95421.94;1018571;29;20560;-73
2023/05/15 02:16:15;;;;;;;34.03;15.95;;;;;;;8.70;100.00;95420.13;1014453;29;20579;-73
2023/05/15 02:16:45;;;;;;;33.05;14.85;;;;;;;8.74;100.00;95420.38;1014639;29;20028;-74
2023/05/15 02:17:16;;;;;;;30.25;14.63;;;;;;;8.75;100.00;95427.19;1014457;29;20517;-73
2023/05/15 02:17:47;;;;;;;31.52;13.60;;;;;;;8.70;100.00;95414.09;1014753;29;20741;-73
2023/05/15 02:18:17;;;;;;;33.47;14.98;;;;;;;8.68;100.00;95410.94;1014532;29;20108;-74
2023/05/15 02:18:48;;;;;;;33.13;14.45;;;;;;;8.66;100.00;95416.44;1014671;29;20024;-73
2023/05/15 02:19:18;;;;;;;43.55;15.65;;;;;;;8.75;100.00;95427.19;1018499;29;20032;-73
2023/05/15 02:19:49;;;;;;;36.30;15.95;;;;;;;8.73;100.00;95430.06;1014201;29;20024;-74
2023/05/15 02:20:20;;;;;;;36.78;16.13;;;;;;;8.73;100.00;95424.84;1022417;29;20026;-74
2023/05/15 02:20:50;;;;;;;38.25;15.00;;;;;;;8.73;100.00;95429.28;1014523;29;20012;-74
2023/05/15 02:21:21;;;;;;;40.97;16.85;;;;;;;8.70;100.00;95422.72;1017342;29;20015;-75
2023/05/15 02:21:51;;;;;;;30.35;14.30;;;;;;;8.69;100.00;95423.00;1011047;29;20024;-73
2023/05/15 02:22:22;;;;;;;34.83;14.98;;;;;;;8.71;100.00;95420.91;1019250;29;20565;-74
2023/05/15 02:22:52;;;;;;;39.38;15.57;;;;;;;8.69;100.00;95423.00;1014331;29;20557;-74
2023/05/15 02:23:23;;;;;;;41.72;15.75;;;;;;;8.68;100.00;95421.41;1014364;29;20051;-74
2023/05/15 02:23:53;;;;;;;40.90;16.33;;;;;;;8.66;100.00;95418.28;1015438;29;20028;-72
2023/05/15 02:24:24;;;;;;;32.20;14.00;;;;;;;8.70;100.00;95420.13;1019359;29;20027;-74
2023/05/15 02:24:54;;;;;;;44.42;15.88;;;;;;;8.69;100.00;95418.56;1026765;28;20065;-74
2023/05/15 02:25:42;;;;;;;35.63;15.25;;;;;;;8.69;100.00;95425.63;1014843;29;20108;-73
2023/05/15 02:26:20;;;;;;;42.17;14.75;;;;;;;8.68;100.00;95416.97;1018867;29;20026;-74
2023/05/15 02:27:35;;;;;;;45.70;13.70;;;;;;;8.67;100.00;95423.25;1019003;29;20262;-73
2023/05/15 02:28:06;;;;;;;43.35;13.18;;;;;;;8.66;100.00;95426.13;1020871;28;20760;-74